Lawnside, New Jersey
Current Conditions -  °F | °C
As of 1:54 PM on Thursday 18 Dec 2014 (Local Time) from KVAY Reporting Station
Few Clouds Few Clouds  
Wind Chill: 33°   Ceiling: Unl
Heat Index: 40°   Visibility: 10mi
Dew Point: 23°   Wind: 13mph
Humidity: 51%   Direction: 310°NW
Pressure: 30.01"   Gusts: 18mph
Location:  39.87°N, 75.03°W
Report Text: KVAY 181854Z AUTO 31011G16KT 10SM FEW040 04/M05 A3001 RMK AO2 SLP162 T00441050
Loading
Personal Weather Stations






























Interactive Weather Map New forecast layout! Learn more

10-Day Weather Forecast

Advertisements
Track Severe Weather on mobile